Time;durP1;ratioP1;P1;durP2;ratioP2;P2;SDS_P1;SDS_P2;PMS_P1;PMS_P2;Temp;Humidity;BMP_temperature;BMP_pressure;BME280_temperature;BME280_humidity;BME280_pressure;Samples;Min_cycle;Max_cycle;Signal;HPM_P1;HPM_P2
2022/05/07 00:01:07;;;;;;;10.13;8.15;;;;;;;;;;5049311;28;20131;-77
2022/05/07 00:03:33;;;;;;;10.77;7.10;;;;;;;;;;5049568;28;20086;-76
2022/05/07 00:06:00;;;;;;;9.52;5.78;;;;;;;;;;5049557;28;20116;-76
2022/05/07 00:08:27;;;;;;;14.40;7.10;;;;;;;;;;5031442;28;20025;-76
2022/05/07 00:10:53;;;;;;;10.57;6.25;;;;;;;;;;5035807;28;20030;-77
2022/05/07 00:13:20;;;;;;;10.13;6.07;;;;;;;;;;5034743;28;20468;-78
2022/05/07 00:18:32;;;;;;;16.75;6.28;;;;;;;;;;5036293;28;20103;-77
2022/05/07 00:20:59;;;;;;;14.90;5.28;;;;;;;;;;5049951;28;20029;-77
2022/05/07 00:23:25;;;;;;;21.27;6.13;;;;;;;;;;5049371;28;20020;-77
2022/05/07 00:25:52;;;;;;;15.70;7.05;;;;;;;;;;5047423;28;20025;-78
2022/05/07 00:28:19;;;;;;;9.68;6.72;;;;;;;;;;5045849;28;20108;-78
2022/05/07 00:30:45;;;;;;;12.93;8.48;;;;;;;;;;5047352;28;20086;-77
2022/05/07 00:33:12;;;;;;;15.05;7.40;;;;;;;;;;5054106;28;20607;-78
2022/05/07 00:35:38;;;;;;;11.85;6.32;;;;;;;;;;5041001;28;20091;-78
2022/05/07 00:38:05;;;;;;;12.05;6.50;;;;;;;;;;5034506;28;20186;-77
2022/05/07 00:40:32;;;;;;;18.10;6.82;;;;;;;;;;5034092;28;20030;-77
2022/05/07 00:42:59;;;;;;;9.50;6.90;;;;;;;;;;5053236;28;20426;-76
2022/05/07 00:45:25;;;;;;;13.30;6.25;;;;;;;;;;5049152;28;20028;-77
2022/05/07 00:47:52;;;;;;;14.23;6.80;;;;;;;;;;5048746;28;20056;-77
2022/05/07 00:53:05;;;;;;;12.93;6.53;;;;;;;;;;5048847;28;20044;-77
2022/05/07 00:55:32;;;;;;;11.98;6.25;;;;;;;;;;5044783;28;20034;-77
2022/05/07 00:57:58;;;;;;;10.20;6.82;;;;;;;;;;5033829;28;20030;-77
2022/05/07 01:00:25;;;;;;;12.13;6.43;;;;;;;;;;5033889;28;20024;-77
2022/05/07 01:02:52;;;;;;;14.73;6.45;;;;;;;;;;5033993;28;20024;-77
2022/05/07 01:05:19;;;;;;;13.77;6.55;;;;;;;;;;5034035;28;20604;-78
2022/05/07 01:07:46;;;;;;;11.80;6.97;;;;;;;;;;5027881;28;20033;-77
2022/05/07 01:10:13;;;;;;;11.38;7.03;;;;;;;;;;5028184;28;20088;-77
2022/05/07 01:12:41;;;;;;;12.67;7.20;;;;;;;;;;5028035;28;20030;-77
2022/05/07 01:15:07;;;;;;;11.60;7.97;;;;;;;;;;5028102;28;20373;-77
2022/05/07 01:17:34;;;;;;;12.27;7.68;;;;;;;;;;5047242;28;20029;-76
2022/05/07 01:20:01;;;;;;;11.87;7.10;;;;;;;;;;5053556;28;20036;-77
2022/05/07 01:22:30;;;;;;;12.77;7.33;;;;;;;;;;5053231;28;20476;-77
2022/05/07 01:24:59;;;;;;;14.40;7.53;;;;;;;;;;5052897;28;20091;-76
2022/05/07 01:27:25;;;;;;;17.20;7.03;;;;;;;;;;5053350;28;20104;-77
2022/05/07 01:29:52;;;;;;;14.00;7.27;;;;;;;;;;5043222;28;20411;-77
2022/05/07 01:32:19;;;;;;;17.90;7.20;;;;;;;;;;5027907;28;20040;-77
2022/05/07 01:34:45;;;;;;;10.87;7.23;;;;;;;;;;5027959;28;20030;-77
2022/05/07 01:37:12;;;;;;;12.30;6.93;;;;;;;;;;5027867;28;20036;-77
2022/05/07 01:39:39;;;;;;;10.87;6.80;;;;;;;;;;5030999;28;20097;-77
2022/05/07 01:42:06;;;;;;;12.43;7.03;;;;;;;;;;5032594;28;20096;-77
2022/05/07 01:44:32;;;;;;;12.80;6.90;;;;;;;;;;5041165;28;20032;-77
2022/05/07 01:49:43;;;;;;;;;;;;;;;;;;5052919;28;20044;-77
2022/05/07 01:52:10;;;;;;;16.30;9.33;;;;;;;;;;5048986;28;19909;-77
2022/05/07 01:54:37;;;;;;;16.63;7.70;;;;;;;;;;5047301;28;20025;-77
2022/05/07 01:57:04;;;;;;;15.40;7.53;;;;;;;;;;5046698;28;20532;-79
2022/05/07 01:59:33;;;;;;;11.40;7.07;;;;;;;;;;5026952;28;20041;-77
2022/05/07 02:01:59;;;;;;;14.57;7.73;;;;;;;;;;5029864;28;20109;-77
2022/05/07 02:04:26;;;;;;;13.47;7.97;;;;;;;;;;5032806;28;20022;-78
2022/05/07 02:06:53;;;;;;;13.17;6.50;;;;;;;;;;5032534;28;20526;-77
2022/05/07 02:09:19;;;;;;;15.97;7.50;;;;;;;;;;5032652;28;20021;-78
2022/05/07 02:11:46;;;;;;;12.37;6.97;;;;;;;;;;5037957;28;20104;-77
2022/05/07 02:14:13;;;;;;;10.57;7.60;;;;;;;;;;5049383;28;20102;-77
2022/05/07 02:16:39;;;;;;;13.57;8.10;;;;;;;;;;5046784;28;20453;-78
2022/05/07 02:19:06;;;;;;;11.47;7.13;;;;;;;;;;5047125;28;20025;-77
2022/05/07 02:21:33;;;;;;;12.03;6.90;;;;;;;;;;5047057;28;20060;-77
2022/05/07 02:23:59;;;;;;;13.27;6.97;;;;;;;;;;5048963;28;20031;-77
2022/05/07 02:26:26;;;;;;;14.53;7.10;;;;;;;;;;5038649;28;20032;-77
2022/05/07 02:28:53;;;;;;;11.93;6.77;;;;;;;;;;5032356;28;20105;-77
2022/05/07 02:31:19;;;;;;;10.90;6.97;;;;;;;;;;5032626;28;20028;-77
2022/05/07 02:33:46;;;;;;;13.00;7.07;;;;;;;;;;5032300;28;20021;-77
2022/05/07 02:36:13;;;;;;;10.50;6.63;;;;;;;;;;5029951;28;20045;-77
2022/05/07 02:38:40;;;;;;;12.63;6.90;;;;;;;;;;5026856;28;20030;-77
2022/05/07 02:43:52;;;;;;;9.83;6.90;;;;;;;;;;5026900;28;20574;-78
2022/05/07 02:46:19;;;;;;;14.03;7.70;;;;;;;;;;5029004;28;20377;-77
2022/05/07 02:48:46;;;;;;;10.10;6.50;;;;;;;;;;5031669;28;20028;-80
2022/05/07 02:51:13;;;;;;;11.70;6.33;;;;;;;;;;5032028;28;20029;-77
2022/05/07 02:53:40;;;;;;;10.33;6.30;;;;;;;;;;5040843;28;20029;-77
2022/05/07 02:56:07;;;;;;;11.47;6.07;;;;;;;;;;5032270;28;20488;-78
2022/05/07 02:58:34;;;;;;;15.37;6.83;;;;;;;;;;5029835;28;20534;-77
2022/05/07 03:01:00;;;;;;;12.97;6.50;;;;;;;;;;5026842;28;20041;-77
2022/05/07 03:03:27;;;;;;;11.57;6.73;;;;;;;;;;5034324;28;20036;-77
2022/05/07 03:05:55;;;;;;;15.97;5.93;;;;;;;;;;5046413;28;20029;-79
2022/05/07 03:08:23;;;;;;;12.30;6.67;;;;;;;;;;5047758;28;20025;-77
2022/05/07 03:10:50;;;;;;;14.57;7.23;;;;;;;;;;5051916;28;20028;-77
2022/05/07 03:13:16;;;;;;;13.93;7.60;;;;;;;;;;5054095;28;20040;-77
2022/05/07 03:15:43;;;;;;;15.00;6.97;;;;;;;;;;5043754;28;20365;-77
2022/05/07 03:18:12;;;;;;;13.57;6.87;;;;;;;;;;5035832;28;20026;-77
2022/05/07 03:20:40;;;;;;;13.40;7.73;;;;;;;;;;5034401;28;20392;-78
2022/05/07 03:23:07;;;;;;;13.33;6.37;;;;;;;;;;5030152;28;20103;-79
2022/05/07 03:25:33;;;;;;;10.20;6.87;;;;;;;;;;5030391;28;20028;-76
2022/05/07 03:28:00;;;;;;;10.47;6.63;;;;;;;;;;5030246;28;20021;-77
2022/05/07 03:30:27;;;;;;;13.93;6.50;;;;;;;;;;5046961;28;20046;-77
2022/05/07 03:32:53;;;;;;;12.47;6.57;;;;;;;;;;5056199;28;20419;-77
2022/05/07 03:35:20;;;;;;;11.23;6.70;;;;;;;;;;5055992;28;20033;-77
2022/05/07 03:37:47;;;;;;;15.50;7.97;;;;;;;;;;5055435;28;20033;-78
2022/05/07 03:40:13;;;;;;;8.07;6.07;;;;;;;;;;5054041;28;20025;-77
2022/05/07 03:42:40;;;;;;;12.97;6.70;;;;;;;;;;5049415;28;20025;-78
2022/05/07 03:45:07;;;;;;;13.03;6.33;;;;;;;;;;5028684;28;20032;-77
2022/05/07 03:47:34;;;;;;;13.60;7.97;;;;;;;;;;5028914;28;20486;-77
2022/05/07 03:50:01;;;;;;;10.90;7.10;;;;;;;;;;5028849;28;20534;-77
2022/05/07 03:55:13;;;;;;;10.77;7.27;;;;;;;;;;5033216;28;20043;-79
2022/05/07 03:57:39;;;;;;;11.83;7.03;;;;;;;;;;5047381;28;20047;-78
2022/05/07 04:00:07;;;;;;;14.17;6.53;;;;;;;;;;5054641;28;20122;-77
2022/05/07 04:02:35;;;;;;;10.83;6.47;;;;;;;;;;5034948;28;20021;-78
2022/05/07 04:05:05;;;;;;;12.53;6.90;;;;;;;;;;5034840;28;20018;-77
2022/05/07 04:07:32;;;;;;;9.33;6.47;;;;;;;;;;5029612;28;20076;-77
2022/05/07 04:09:59;;;;;;;13.23;7.27;;;;;;;;;;5029723;28;20033;-78
2022/05/07 04:12:25;;;;;;;13.43;7.30;;;;;;;;;;5049248;28;20024;-78
2022/05/07 04:14:52;;;;;;;11.40;7.07;;;;;;;;;;5049359;28;20056;-77
2022/05/07 04:17:19;;;;;;;11.87;7.70;;;;;;;;;;5054440;28;20021;-77
2022/05/07 04:19:45;;;;;;;12.47;7.57;;;;;;;;;;5042278;28;20033;-77
2022/05/07 04:22:12;;;;;;;11.27;6.87;;;;;;;;;;5034810;28;20025;-77
2022/05/07 04:24:39;;;;;;;12.67;7.27;;;;;;;;;;5042700;28;20067;-77
2022/05/07 04:27:07;;;;;;;21.67;6.93;;;;;;;;;;5054497;28;20021;-77
2022/05/07 04:29:33;;;;;;;11.87;7.07;;;;;;;;;;5048776;28;20496;-79
2022/05/07 04:32:00;;;;;;;11.83;7.07;;;;;;;;;;5049226;28;20025;-77
2022/05/07 04:34:28;;;;;;;11.37;6.80;;;;;;;;;;5049063;28;20041;-78
2022/05/07 04:36:55;;;;;;;14.07;7.47;;;;;;;;;;5049320;28;20029;-77
2022/05/07 04:39:21;;;;;;;14.03;8.10;;;;;;;;;;5034247;28;20033;-77
2022/05/07 04:41:48;;;;;;;14.33;6.77;;;;;;;;;;5034225;28;20021;-77
2022/05/07 04:44:15;;;;;;;13.87;6.93;;;;;;;;;;5034306;28;20033;-77
2022/05/07 04:46:42;;;;;;;14.00;7.90;;;;;;;;;;5033735;28;20473;-78
2022/05/07 04:49:08;;;;;;;11.13;7.27;;;;;;;;;;5034129;28;20018;-77
2022/05/07 04:51:35;;;;;;;12.67;7.53;;;;;;;;;;5035051;28;20222;-77
2022/05/07 04:54:02;;;;;;;15.40;8.10;;;;;;;;;;5048747;28;20025;-77
2022/05/07 04:56:29;;;;;;;14.23;7.67;;;;;;;;;;5048721;28;20539;-77
2022/05/07 04:58:55;;;;;;;16.93;7.77;;;;;;;;;;5048599;28;20491;-77
2022/05/07 05:01:22;;;;;;;11.50;7.07;;;;;;;;;;5052118;28;20021;-77
2022/05/07 05:03:49;;;;;;;12.03;7.93;;;;;;;;;;5053464;28;20052;-78
2022/05/07 05:06:15;;;;;;;13.57;7.57;;;;;;;;;;5039714;28;20079;-77
2022/05/07 05:08:42;;;;;;;13.00;7.60;;;;;;;;;;5035545;28;20057;-77
2022/05/07 05:11:09;;;;;;;13.50;7.73;;;;;;;;;;5033826;28;20091;-77
2022/05/07 05:13:35;;;;;;;11.50;7.90;;;;;;;;;;5030070;28;20448;-77
2022/05/07 05:16:02;;;;;;;13.20;7.20;;;;;;;;;;5028216;28;20045;-76
2022/05/07 05:18:29;;;;;;;9.87;7.23;;;;;;;;;;5029340;28;20044;-77
2022/05/07 05:20:56;;;;;;;16.13;7.07;;;;;;;;;;5028254;28;20469;-78
2022/05/07 05:23:23;;;;;;;13.97;7.13;;;;;;;;;;5030867;28;20029;-77
2022/05/07 05:25:50;;;;;;;13.87;7.10;;;;;;;;;;5033377;28;20128;-77
2022/05/07 05:28:16;;;;;;;11.93;6.97;;;;;;;;;;5035594;28;20480;-77
2022/05/07 05:30:44;;;;;;;11.90;7.13;;;;;;;;;;5053359;28;20388;-77
2022/05/07 05:33:14;;;;;;;10.97;6.70;;;;;;;;;;5053024;28;20017;-76
2022/05/07 05:35:40;;;;;;;11.37;6.63;;;;;;;;;;5049385;28;20544;-77
2022/05/07 05:38:07;;;;;;;13.43;7.73;;;;;;;;;;5047590;28;20431;-78
2022/05/07 05:40:34;;;;;;;13.17;7.60;;;;;;;;;;5048051;28;20033;-77
2022/05/07 05:43:01;;;;;;;11.50;7.57;;;;;;;;;;5038918;28;20469;-77
2022/05/07 05:45:28;;;;;;;11.50;7.83;;;;;;;;;;5030133;28;20029;-77
2022/05/07 05:47:55;;;;;;;10.50;5.97;;;;;;;;;;5033134;28;20033;-77
2022/05/07 05:50:21;;;;;;;13.43;7.70;;;;;;;;;;5032914;28;20103;-77
2022/05/07 05:52:48;;;;;;;10.83;6.23;;;;;;;;;;5032940;28;20025;-76
2022/05/07 05:55:15;;;;;;;13.20;6.83;;;;;;;;;;5032505;28;20034;-76
2022/05/07 05:57:44;;;;;;;10.93;7.20;;;;;;;;;;5031532;28;20480;-76
2022/05/07 06:00:10;;;;;;;11.00;7.50;;;;;;;;;;5034965;28;20025;-76
2022/05/07 06:02:37;;;;;;;13.27;7.37;;;;;;;;;;5030668;28;20029;-76
2022/05/07 06:05:04;;;;;;;9.93;6.37;;;;;;;;;;5035958;28;20112;-76
2022/05/07 06:07:31;;;;;;;12.00;6.60;;;;;;;;;;5028652;28;20018;-76
2022/05/07 06:09:57;;;;;;;11.60;6.47;;;;;;;;;;5050901;28;20021;-75
2022/05/07 06:12:24;;;;;;;11.97;6.53;;;;;;;;;;5052044;28;20077;-76
2022/05/07 06:14:54;;;;;;;12.97;6.87;;;;;;;;;;5052310;28;20061;-76
2022/05/07 06:17:20;;;;;;;10.53;6.37;;;;;;;;;;5052529;28;20032;-76
2022/05/07 06:19:47;;;;;;;10.90;6.40;;;;;;;;;;5050762;28;20025;-76
2022/05/07 06:22:14;;;;;;;9.50;6.37;;;;;;;;;;5027946;28;20437;-76
2022/05/07 06:27:29;;;;;;;9.82;6.80;;;;;;;;;;5045069;28;20039;-76
2022/05/07 06:29:59;;;;;;;13.10;8.10;;;;;;;;;;5029588;28;20032;-76
2022/05/07 06:32:35;;;;;;;13.47;8.60;;;;;;;;;;5033340;28;20080;-76
2022/05/07 06:35:05;;;;;;;10.97;7.63;;;;;;;;;;5049764;28;20040;-75
2022/05/07 06:37:32;;;;;;;12.53;8.60;;;;;;;;;;5035138;28;20053;-76
2022/05/07 06:39:59;;;;;;;17.10;8.97;;;;;;;;;;5032902;28;20490;-76
2022/05/07 06:42:26;;;;;;;14.00;7.67;;;;;;;;;;5044844;28;20033;-76
2022/05/07 06:44:52;;;;;;;14.77;7.77;;;;;;;;;;5027189;28;20027;-76
2022/05/07 06:47:19;;;;;;;15.57;9.30;;;;;;;;;;5045800;28;20040;-75
2022/05/07 06:49:46;;;;;;;17.30;9.50;;;;;;;;;;5051053;28;20086;-75
2022/05/07 06:52:13;;;;;;;15.80;9.90;;;;;;;;;;5053312;28;20043;-76
2022/05/07 06:54:39;;;;;;;15.27;10.50;;;;;;;;;;5056256;28;20112;-77
2022/05/07 06:57:06;;;;;;;15.47;10.57;;;;;;;;;;5039683;28;20140;-76
2022/05/07 06:59:33;;;;;;;12.73;9.47;;;;;;;;;;5057806;28;20069;-75
2022/05/07 07:02:00;;;;;;;12.30;9.53;;;;;;;;;;5045444;28;20029;-76
2022/05/07 07:04:26;;;;;;;14.57;10.10;;;;;;;;;;5052502;28;20068;-75
2022/05/07 07:06:53;;;;;;;14.80;10.20;;;;;;;;;;5041261;28;20021;-75
2022/05/07 07:09:20;;;;;;;15.57;10.33;;;;;;;;;;5052447;28;20411;-75
2022/05/07 07:11:47;;;;;;;14.63;9.67;;;;;;;;;;5052089;28;20093;-77
2022/05/07 07:14:13;;;;;;;17.03;10.00;;;;;;;;;;5041208;28;20052;-76
2022/05/07 07:16:40;;;;;;;16.40;10.43;;;;;;;;;;5039109;28;20037;-76
2022/05/07 07:19:07;;;;;;;14.17;9.63;;;;;;;;;;5049772;28;20029;-76
2022/05/07 07:21:34;;;;;;;13.23;9.63;;;;;;;;;;5051201;28;20033;-75
2022/05/07 07:24:01;;;;;;;12.87;8.17;;;;;;;;;;5039280;28;20524;-76
2022/05/07 07:26:28;;;;;;;14.10;9.20;;;;;;;;;;5051333;28;20057;-76
2022/05/07 07:28:56;;;;;;;13.80;9.73;;;;;;;;;;5042615;28;20025;-76
2022/05/07 07:31:23;;;;;;;14.50;9.13;;;;;;;;;;5051554;28;20025;-76
2022/05/07 07:33:50;;;;;;;15.50;9.97;;;;;;;;;;5043849;28;20017;-76
2022/05/07 07:36:16;;;;;;;13.37;9.43;;;;;;;;;;5048275;28;20065;-76
2022/05/07 07:38:43;;;;;;;14.43;9.70;;;;;;;;;;5038457;28;20026;-76
2022/05/07 07:41:10;;;;;;;16.63;10.07;;;;;;;;;;5041578;28;20033;-76
2022/05/07 07:43:39;;;;;;;14.60;8.97;;;;;;;;;;5051309;28;20033;-75
2022/05/07 07:48:59;;;;;;;14.07;10.20;;;;;;;;;;5024347;28;20041;-76
2022/05/07 07:51:25;;;;;;;16.47;11.37;;;;;;;;;;5048841;28;20041;-75
2022/05/07 07:53:52;;;;;;;15.40;10.90;;;;;;;;;;5033196;28;20022;-75
2022/05/07 07:56:19;;;;;;;16.37;9.30;;;;;;;;;;5047784;28;20507;-76
2022/05/07 07:58:46;;;;;;;14.50;9.87;;;;;;;;;;5034395;28;20036;-76
2022/05/07 08:01:12;;;;;;;15.17;10.80;;;;;;;;;;5048582;28;20021;-76
2022/05/07 08:03:39;;;;;;;16.97;9.80;;;;;;;;;;5044046;28;20060;-76
2022/05/07 08:06:06;;;;;;;16.43;10.40;;;;;;;;;;5051311;28;20029;-75
2022/05/07 08:14:02;;;;;;;16.45;10.00;;;;;;;;;;5040363;28;20037;-76
2022/05/07 08:16:29;;;;;;;18.10;10.50;;;;;;;;;;5041654;28;20565;-76
2022/05/07 08:18:57;;;;;;;13.67;9.70;;;;;;;;;;5033099;28;20033;-75
2022/05/07 08:21:24;;;;;;;14.10;9.27;;;;;;;;;;5035434;28;20033;-76
2022/05/07 08:23:51;;;;;;;13.67;9.37;;;;;;;;;;5054023;28;20044;-76
2022/05/07 08:26:17;;;;;;;17.33;10.53;;;;;;;;;;5049369;28;20033;-76
2022/05/07 08:28:44;;;;;;;14.80;10.40;;;;;;;;;;5034726;28;20396;-75
2022/05/07 08:31:11;;;;;;;12.80;9.40;;;;;;;;;;5044144;28;20025;-76
2022/05/07 08:33:42;;;;;;;18.27;10.03;;;;;;;;;;5039837;28;20143;-76
2022/05/07 08:36:10;;;;;;;17.80;10.90;;;;;;;;;;5036822;28;20087;-76
2022/05/07 08:38:37;;;;;;;14.80;9.70;;;;;;;;;;5041421;28;20029;-77
2022/05/07 08:41:04;;;;;;;14.30;10.17;;;;;;;;;;5047296;28;20060;-75
2022/05/07 08:43:36;;;;;;;17.13;10.43;;;;;;;;;;5034420;28;20040;-76
2022/05/07 08:46:24;;;;;;;15.10;10.20;;;;;;;;;;5035256;28;20423;-76
2022/05/07 08:48:51;;;;;;;12.97;8.50;;;;;;;;;;5049362;28;20037;-76
2022/05/07 08:51:21;;;;;;;15.63;10.93;;;;;;;;;;5036766;28;20106;-76
2022/05/07 08:53:49;;;;;;;16.13;10.73;;;;;;;;;;5047544;28;20057;-76
2022/05/07 08:56:16;;;;;;;14.73;9.47;;;;;;;;;;5033583;28;20362;-76
2022/05/07 08:58:50;;;;;;;19.83;11.10;;;;;;;;;;5041581;28;20025;-75
2022/05/07 09:01:17;;;;;;;15.27;10.80;;;;;;;;;;5047000;28;20032;-75
2022/05/07 09:03:45;;;;;;;15.10;10.27;;;;;;;;;;5037026;28;20376;-76
2022/05/07 09:06:19;;;;;;;13.60;9.80;;;;;;;;;;5039530;28;20376;-76
2022/05/07 09:08:46;;;;;;;13.33;9.20;;;;;;;;;;5047901;28;20044;-76
2022/05/07 09:11:13;;;;;;;18.17;10.93;;;;;;;;;;5052674;28;20028;-76
2022/05/07 09:13:41;;;;;;;15.93;10.83;;;;;;;;;;5040076;28;20503;-75
2022/05/07 09:16:08;;;;;;;15.50;10.27;;;;;;;;;;5033320;28;20033;-75
2022/05/07 09:18:36;;;;;;;17.23;11.70;;;;;;;;;;5044920;28;20511;-76
2022/05/07 09:21:23;;;;;;;15.10;9.97;;;;;;;;;;5030899;28;20033;-76
2022/05/07 09:23:59;;;;;;;16.53;10.77;;;;;;;;;;5029357;28;20029;-75
2022/05/07 09:26:27;;;;;;;15.17;10.63;;;;;;;;;;5028288;28;20728;-76
2022/05/07 09:28:54;;;;;;;15.67;10.77;;;;;;;;;;5044302;28;20029;-76
2022/05/07 09:31:28;;;;;;;16.50;9.93;;;;;;;;;;5051466;28;20498;-76
2022/05/07 09:33:55;;;;;;;15.27;10.07;;;;;;;;;;5037711;28;20038;-76
2022/05/07 09:36:25;;;;;;;16.03;10.50;;;;;;;;;;5049089;28;20507;-76
2022/05/07 09:38:59;;;;;;;16.83;11.63;;;;;;;;;;5040074;28;20536;-76
2022/05/07 09:41:26;;;;;;;27.23;12.00;;;;;;;;;;5033084;28;20194;-76
2022/05/07 09:43:52;;;;;;;18.50;10.63;;;;;;;;;;5040807;28;20034;-76
2022/05/07 09:46:19;;;;;;;15.20;10.63;;;;;;;;;;5028822;28;20080;-76
2022/05/07 09:48:46;;;;;;;16.60;11.07;;;;;;;;;;5041665;28;20088;-76
2022/05/07 09:51:13;;;;;;;16.07;11.17;;;;;;;;;;5031036;28;20052;-76
2022/05/07 09:59:11;;;;;;;17.55;10.35;;;;;;;;;;5033109;28;20040;-75
2022/05/07 10:02:00;;;;;;;17.77;11.37;;;;;;;;;;5034408;28;20033;-76
2022/05/07 10:04:27;;;;;;;15.50;11.47;;;;;;;;;;5036247;28;20025;-76
2022/05/07 10:07:03;;;;;;;15.77;10.57;;;;;;;;;;5035633;28;20443;-74
2022/05/07 10:09:48;;;;;;;17.33;12.83;;;;;;;;;;5043186;28;20029;-75
2022/05/07 10:12:20;;;;;;;17.63;12.60;;;;;;;;;;5040395;28;20040;-76
2022/05/07 10:14:47;;;;;;;18.37;12.53;;;;;;;;;;5033284;28;20049;-76
2022/05/07 10:17:15;;;;;;;23.67;13.80;;;;;;;;;;5048995;28;20487;-76
2022/05/07 10:19:45;;;;;;;19.90;12.83;;;;;;;;;;5033520;28;20488;-75
2022/05/07 10:22:30;;;;;;;16.23;11.33;;;;;;;;;;5039727;28;20056;-75
2022/05/07 10:25:04;;;;;;;18.38;12.98;;;;;;;;;;5040454;28;20025;-76
2022/05/07 10:27:37;;;;;;;15.00;11.63;;;;;;;;;;5030396;28;20057;-75
2022/05/07 10:30:14;;;;;;;20.70;13.73;;;;;;;;;;5038707;28;20491;-75
2022/05/07 10:32:48;;;;;;;16.03;11.70;;;;;;;;;;5032493;28;20567;-75
2022/05/07 10:35:15;;;;;;;18.80;13.05;;;;;;;;;;5047207;28;20431;-75
2022/05/07 10:37:44;;;;;;;20.57;13.43;;;;;;;;;;5034927;28;20025;-75
2022/05/07 10:40:12;;;;;;;17.60;12.87;;;;;;;;;;5036618;28;20395;-76
2022/05/07 10:42:39;;;;;;;19.30;12.43;;;;;;;;;;5039771;28;20044;-75
2022/05/07 10:45:06;;;;;;;16.93;11.90;;;;;;;;;;5048337;28;20017;-75
2022/05/07 10:47:33;;;;;;;20.63;11.80;;;;;;;;;;5038319;28;20029;-76
2022/05/07 10:50:13;;;;;;;19.23;13.40;;;;;;;;;;5035877;28;20524;-76
2022/05/07 10:52:40;;;;;;;19.63;12.67;;;;;;;;;;5035625;28;20047;-75
2022/05/07 10:55:08;;;;;;;15.13;10.87;;;;;;;;;;5033842;28;20041;-75
2022/05/07 10:57:39;;;;;;;15.97;11.47;;;;;;;;;;5027854;28;20381;-75
2022/05/07 11:00:10;;;;;;;19.53;13.40;;;;;;;;;;5051495;28;20021;-76
2022/05/07 11:02:37;;;;;;;20.50;14.63;;;;;;;;;;5033218;28;20404;-75
2022/05/07 11:05:04;;;;;;;19.63;12.63;;;;;;;;;;5039953;28;20484;-75
2022/05/07 11:07:30;;;;;;;21.97;14.60;;;;;;;;;;5035523;28;20064;-76
2022/05/07 11:09:57;;;;;;;21.00;15.00;;;;;;;;;;5031713;28;20029;-75
2022/05/07 11:12:24;;;;;;;22.60;13.63;;;;;;;;;;5039670;28;20507;-75
2022/05/07 11:14:51;;;;;;;21.80;14.13;;;;;;;;;;5044561;28;20427;-75
2022/05/07 11:17:28;;;;;;;20.33;13.30;;;;;;;;;;5042062;28;20163;-76
2022/05/07 11:19:55;;;;;;;20.03;12.83;;;;;;;;;;5027128;28;20033;-75
2022/05/07 11:22:29;;;;;;;21.70;13.93;;;;;;;;;;5034113;28;20040;-75
2022/05/07 11:24:57;;;;;;;21.88;15.43;;;;;;;;;;5044385;28;20468;-75
2022/05/07 11:27:31;;;;;;;22.10;13.27;;;;;;;;;;5042414;28;20029;-75
2022/05/07 11:29:57;;;;;;;19.13;12.67;;;;;;;;;;5039505;28;20095;-76
2022/05/07 11:32:24;;;;;;;18.70;12.57;;;;;;;;;;5031658;28;20072;-75
2022/05/07 11:34:57;;;;;;;24.47;14.50;;;;;;;;;;5029579;28;20038;-75
2022/05/07 11:37:24;;;;;;;24.10;14.60;;;;;;;;;;5032675;28;20029;-75
2022/05/07 11:39:55;;;;;;;20.77;14.20;;;;;;;;;;5050397;28;20375;-75
2022/05/07 11:42:35;;;;;;;19.77;14.53;;;;;;;;;;5033317;28;20032;-76
2022/05/07 11:47:56;;;;;;;21.63;14.03;;;;;;;;;;5040988;28;20075;-76
2022/05/07 11:50:27;;;;;;;24.17;15.47;;;;;;;;;;5054741;28;20032;-76
2022/05/07 11:52:54;;;;;;;18.20;13.00;;;;;;;;;;5048193;28;20099;-76
2022/05/07 11:55:25;;;;;;;20.40;12.90;;;;;;;;;;5032631;28;20488;-76
2022/05/07 11:57:52;;;;;;;18.53;13.80;;;;;;;;;;5040459;28;20091;-75
2022/05/07 12:00:23;;;;;;;19.53;14.27;;;;;;;;;;5042225;28;20476;-75
2022/05/07 12:02:54;;;;;;;19.77;13.97;;;;;;;;;;5036023;28;20029;-77
2022/05/07 12:05:21;;;;;;;19.17;12.70;;;;;;;;;;5046589;28;20045;-76
2022/05/07 12:07:49;;;;;;;18.00;12.73;;;;;;;;;;5043148;28;20119;-75
2022/05/07 12:10:18;;;;;;;20.77;15.30;;;;;;;;;;5054749;28;20017;-75
2022/05/07 12:12:46;;;;;;;17.83;12.73;;;;;;;;;;5047810;28;20036;-75
2022/05/07 12:15:13;;;;;;;19.30;12.40;;;;;;;;;;5044706;28;20041;-75
2022/05/07 12:17:52;;;;;;;22.67;13.60;;;;;;;;;;5043093;28;20387;-76
2022/05/07 12:20:20;;;;;;;21.97;15.47;;;;;;;;;;5049515;28;20086;-75
2022/05/07 12:31:02;;;;;;;19.20;12.55;;;;;;;;;;5041730;28;20068;-74
2022/05/07 12:33:30;;;;;;;20.93;14.17;;;;;;;;;;5050625;28;20029;-74
2022/05/07 12:35:57;;;;;;;22.20;14.80;;;;;;;;;;5034090;28;20030;-75
2022/05/07 12:38:23;;;;;;;22.77;13.97;;;;;;;;;;5046332;28;20479;-75
2022/05/07 12:40:50;;;;;;;18.63;13.20;;;;;;;;;;5049985;28;20119;-74
2022/05/07 12:43:17;;;;;;;22.77;15.20;;;;;;;;;;5037229;28;20550;-74
2022/05/07 12:45:43;;;;;;;19.63;14.57;;;;;;;;;;5043906;28;20021;-75
2022/05/07 12:48:11;;;;;;;26.30;15.67;;;;;;;;;;5031770;28;20025;-75
2022/05/07 12:50:38;;;;;;;21.80;15.20;;;;;;;;;;5037603;28;20513;-75
2022/05/07 12:53:05;;;;;;;19.97;15.03;;;;;;;;;;5043050;28;20415;-76
2022/05/07 12:55:32;;;;;;;23.80;16.33;;;;;;;;;;5054221;28;20083;-75
2022/05/07 12:57:59;;;;;;;21.10;14.37;;;;;;;;;;5039214;28;20032;-74
2022/05/07 13:00:26;;;;;;;20.20;14.20;;;;;;;;;;5035041;28;20083;-75
2022/05/07 13:02:56;;;;;;;22.87;15.43;;;;;;;;;;5038486;28;20036;-74
2022/05/07 13:05:23;;;;;;;24.80;17.20;;;;;;;;;;5048530;28;20032;-75
2022/05/07 13:07:50;;;;;;;27.77;17.00;;;;;;;;;;5041779;28;20091;-75
2022/05/07 13:10:16;;;;;;;24.53;16.57;;;;;;;;;;5038210;28;20029;-75
2022/05/07 13:12:46;;;;;;;26.10;16.80;;;;;;;;;;5043348;28;20036;-75
2022/05/07 13:15:12;;;;;;;25.27;16.47;;;;;;;;;;5045327;28;20033;-75
2022/05/07 13:17:39;;;;;;;26.57;16.60;;;;;;;;;;5038362;28;20159;-75
2022/05/07 13:20:06;;;;;;;31.03;19.40;;;;;;;;;;5049373;28;20525;-75
2022/05/07 13:22:33;;;;;;;27.80;16.70;;;;;;;;;;5042368;28;20025;-75
2022/05/07 13:25:00;;;;;;;30.80;18.97;;;;;;;;;;5030767;28;20033;-76
2022/05/07 13:27:27;;;;;;;27.37;18.30;;;;;;;;;;5046059;28;20043;-75
2022/05/07 13:29:53;;;;;;;23.07;15.50;;;;;;;;;;5028199;28;20041;-75
2022/05/07 13:32:22;;;;;;;25.60;16.20;;;;;;;;;;5031823;28;20028;-75
2022/05/07 13:34:48;;;;;;;26.93;16.57;;;;;;;;;;5042525;28;20116;-75
2022/05/07 13:37:16;;;;;;;22.20;15.50;;;;;;;;;;5034160;28;20049;-75
2022/05/07 13:39:42;;;;;;;21.30;15.37;;;;;;;;;;5053173;28;20033;-75
2022/05/07 13:42:11;;;;;;;25.03;17.23;;;;;;;;;;5052851;28;20100;-75
2022/05/07 13:44:38;;;;;;;24.13;17.33;;;;;;;;;;5033321;28;20025;-75
2022/05/07 13:47:07;;;;;;;29.97;17.43;;;;;;;;;;5030277;28;20079;-75
2022/05/07 13:49:34;;;;;;;25.50;17.07;;;;;;;;;;5043645;28;20053;-75
2022/05/07 13:52:04;;;;;;;32.57;18.73;;;;;;;;;;5032347;28;20025;-74
2022/05/07 13:54:31;;;;;;;30.90;17.00;;;;;;;;;;5045758;28;20035;-76
2022/05/07 13:56:58;;;;;;;29.33;20.03;;;;;;;;;;5048793;28;20028;-75
2022/05/07 13:59:25;;;;;;;35.03;19.47;;;;;;;;;;5037945;28;20116;-75
2022/05/07 14:01:52;;;;;;;25.33;15.17;;;;;;;;;;5033743;28;20075;-75
2022/05/07 14:04:19;;;;;;;29.53;19.00;;;;;;;;;;5048802;28;20058;-77
2022/05/07 14:06:46;;;;;;;38.77;19.23;;;;;;;;;;5032573;28;20029;-77
2022/05/07 14:09:13;;;;;;;31.70;18.97;;;;;;;;;;5032771;28;20053;-76
2022/05/07 14:11:40;;;;;;;31.97;17.90;;;;;;;;;;5047390;28;20021;-75
2022/05/07 14:14:07;;;;;;;27.00;16.67;;;;;;;;;;5030626;28;20033;-75
2022/05/07 14:16:35;;;;;;;27.07;16.03;;;;;;;;;;5027689;28;20046;-75
2022/05/07 14:19:02;;;;;;;28.23;16.93;;;;;;;;;;5043899;28;20422;-75
2022/05/07 14:21:28;;;;;;;24.77;17.13;;;;;;;;;;5043487;28;20368;-75
2022/05/07 14:23:55;;;;;;;22.37;15.07;;;;;;;;;;5045503;28;20124;-74
2022/05/07 14:26:22;;;;;;;21.60;14.13;;;;;;;;;;5040120;28;20017;-74
2022/05/07 14:28:49;;;;;;;26.27;17.70;;;;;;;;;;5040124;28;20064;-75
2022/05/07 14:31:16;;;;;;;24.57;15.27;;;;;;;;;;5030511;28;20021;-74
2022/05/07 14:33:45;;;;;;;21.40;14.07;;;;;;;;;;5039698;28;20032;-75
2022/05/07 14:36:11;;;;;;;22.73;15.00;;;;;;;;;;5038426;28;20068;-76
2022/05/07 14:38:38;;;;;;;23.23;15.13;;;;;;;;;;5038852;28;20067;-74
2022/05/07 14:41:05;;;;;;;18.20;13.33;;;;;;;;;;5041898;28;20579;-74
2022/05/07 14:43:31;;;;;;;19.80;13.30;;;;;;;;;;5041197;28;20021;-74
2022/05/07 14:45:58;;;;;;;20.70;14.47;;;;;;;;;;5038427;28;20032;-75
2022/05/07 14:48:25;;;;;;;25.77;14.67;;;;;;;;;;5042161;28;20029;-75
2022/05/07 14:50:53;;;;;;;18.20;14.70;;;;;;;;;;5046894;28;20469;-75
2022/05/07 14:53:20;;;;;;;25.60;12.67;;;;;;;;;;5039935;28;20029;-75
2022/05/07 14:55:47;;;;;;;19.63;14.47;;;;;;;;;;5037365;28;20055;-74
2022/05/07 14:58:14;;;;;;;25.37;14.27;;;;;;;;;;5042071;28;20030;-74
2022/05/07 15:00:41;;;;;;;20.73;14.07;;;;;;;;;;5027653;28;20469;-75
2022/05/07 15:03:08;;;;;;;24.63;16.60;;;;;;;;;;5029958;28;20116;-75
2022/05/07 15:05:35;;;;;;;23.43;15.27;;;;;;;;;;5040848;28;20047;-75
2022/05/07 15:10:48;;;;;;;19.23;14.53;;;;;;;;;;5004979;28;20033;-74